sensor_id;sensor_type;location;lat;lon;timestamp;P1;durP1;ratioP1;P2;durP2;ratioP2
36585;SDS011;22591;48.314;11.562;2023-03-14T00:00:51;0.35;;;0.35;;
36585;SDS011;22591;48.314;11.562;2023-03-14T00:03:16;0.82;;;0.60;;
36585;SDS011;22591;48.314;11.562;2023-03-14T00:05:42;0.40;;;0.40;;
36585;SDS011;22591;48.314;11.562;2023-03-14T00:08:07;0.40;;;0.40;;
36585;SDS011;22591;48.314;11.562;2023-03-14T00:10:33;0.47;;;0.45;;
36585;SDS011;22591;48.314;11.562;2023-03-14T00:13:01;0.60;;;0.60;;
36585;SDS011;22591;48.314;11.562;2023-03-14T00:15:27;0.50;;;0.50;;
36585;SDS011;22591;48.314;11.562;2023-03-14T00:17:52;0.93;;;0.40;;
36585;SDS011;22591;48.314;11.562;2023-03-14T00:20:18;1.45;;;0.50;;
36585;SDS011;22591;48.314;11.562;2023-03-14T00:22:43;0.30;;;0.30;;
36585;SDS011;22591;48.314;11.562;2023-03-14T00:25:09;0.75;;;0.73;;
36585;SDS011;22591;48.314;11.562;2023-03-14T00:27:35;0.40;;;0.40;;
36585;SDS011;22591;48.314;11.562;2023-03-14T00:30:02;3.30;;;0.55;;
36585;SDS011;22591;48.314;11.562;2023-03-14T00:32:28;1.85;;;0.40;;
36585;SDS011;22591;48.314;11.562;2023-03-14T00:34:54;0.43;;;0.43;;
36585;SDS011;22591;48.314;11.562;2023-03-14T00:37:19;1.50;;;0.50;;
36585;SDS011;22591;48.314;11.562;2023-03-14T00:39:45;0.60;;;0.60;;
36585;SDS011;22591;48.314;11.562;2023-03-14T00:42:10;0.45;;;0.45;;
36585;SDS011;22591;48.314;11.562;2023-03-14T00:44:36;0.30;;;0.30;;
36585;SDS011;22591;48.314;11.562;2023-03-14T00:47:02;0.35;;;0.35;;
36585;SDS011;22591;48.314;11.562;2023-03-14T00:49:27;0.52;;;0.40;;
36585;SDS011;22591;48.314;11.562;2023-03-14T00:51:53;0.68;;;0.68;;
36585;SDS011;22591;48.314;11.562;2023-03-14T00:54:19;0.40;;;0.40;;
36585;SDS011;22591;48.314;11.562;2023-03-14T00:56:44;0.68;;;0.68;;
36585;SDS011;22591;48.314;11.562;2023-03-14T00:59:10;0.75;;;0.50;;
36585;SDS011;22591;48.314;11.562;2023-03-14T01:01:36;0.30;;;0.30;;
36585;SDS011;22591;48.314;11.562;2023-03-14T01:04:02;0.38;;;0.38;;
36585;SDS011;22591;48.314;11.562;2023-03-14T01:06:28;0.47;;;0.40;;
36585;SDS011;22591;48.314;11.562;2023-03-14T01:08:55;0.60;;;0.60;;
36585;SDS011;22591;48.314;11.562;2023-03-14T01:13:50;0.85;;;0.52;;
36585;SDS011;22591;48.314;11.562;2023-03-14T01:16:17;0.63;;;0.60;;
36585;SDS011;22591;48.314;11.562;2023-03-14T01:18:44;0.60;;;0.57;;
36585;SDS011;22591;48.314;11.562;2023-03-14T01:21:18;0.77;;;0.75;;
36585;SDS011;22591;48.314;11.562;2023-03-14T01:23:48;0.60;;;0.55;;
36585;SDS011;22591;48.314;11.562;2023-03-14T01:26:16;0.93;;;0.50;;
36585;SDS011;22591;48.314;11.562;2023-03-14T01:28:46;1.10;;;0.82;;
36585;SDS011;22591;48.314;11.562;2023-03-14T01:31:12;0.60;;;0.60;;
36585;SDS011;22591;48.314;11.562;2023-03-14T01:33:38;0.63;;;0.63;;
36585;SDS011;22591;48.314;11.562;2023-03-14T01:36:04;0.85;;;0.45;;
36585;SDS011;22591;48.314;11.562;2023-03-14T01:38:31;0.70;;;0.70;;
36585;SDS011;22591;48.314;11.562;2023-03-14T01:40:58;2.40;;;0.68;;
36585;SDS011;22591;48.314;11.562;2023-03-14T01:43:24;2.40;;;0.95;;
36585;SDS011;22591;48.314;11.562;2023-03-14T01:51:34;1.08;;;1.00;;
36585;SDS011;22591;48.314;11.562;2023-03-14T01:54:33;1.15;;;0.93;;
36585;SDS011;22591;48.314;11.562;2023-03-14T01:57:16;2.05;;;0.82;;
36585;SDS011;22591;48.314;11.562;2023-03-14T01:59:51;1.08;;;0.80;;
36585;SDS011;22591;48.314;11.562;2023-03-14T02:02:20;1.52;;;0.85;;
36585;SDS011;22591;48.314;11.562;2023-03-14T02:04:47;3.55;;;1.33;;
36585;SDS011;22591;48.314;11.562;2023-03-14T02:07:24;0.77;;;0.77;;
36585;SDS011;22591;48.314;11.562;2023-03-14T02:10:12;1.40;;;1.10;;
36585;SDS011;22591;48.314;11.562;2023-03-14T02:12:39;3.72;;;0.88;;
36585;SDS011;22591;48.314;11.562;2023-03-14T02:15:05;3.80;;;1.08;;
36585;SDS011;22591;48.314;11.562;2023-03-14T02:17:31;0.98;;;0.73;;
36585;SDS011;22591;48.314;11.562;2023-03-14T02:22:22;0.82;;;0.63;;
36585;SDS011;22591;48.314;11.562;2023-03-14T02:27:33;1.35;;;0.70;;
36585;SDS011;22591;48.314;11.562;2023-03-14T02:30:01;5.07;;;1.00;;
36585;SDS011;22591;48.314;11.562;2023-03-14T02:32:30;1.85;;;0.50;;
36585;SDS011;22591;48.314;11.562;2023-03-14T02:34:59;1.25;;;0.57;;
36585;SDS011;22591;48.314;11.562;2023-03-14T02:37:46;2.15;;;0.70;;
36585;SDS011;22591;48.314;11.562;2023-03-14T02:40:15;1.63;;;0.50;;
36585;SDS011;22591;48.314;11.562;2023-03-14T02:42:41;1.13;;;0.52;;
36585;SDS011;22591;48.314;11.562;2023-03-14T02:47:36;0.50;;;0.50;;
36585;SDS011;22591;48.314;11.562;2023-03-14T02:50:08;0.47;;;0.47;;
36585;SDS011;22591;48.314;11.562;2023-03-14T02:52:37;2.83;;;0.60;;
36585;SDS011;22591;48.314;11.562;2023-03-14T02:55:03;0.75;;;0.47;;
36585;SDS011;22591;48.314;11.562;2023-03-14T02:57:29;0.60;;;0.60;;
36585;SDS011;22591;48.314;11.562;2023-03-14T02:59:57;0.60;;;0.60;;
36585;SDS011;22591;48.314;11.562;2023-03-14T03:02:24;0.60;;;0.60;;
36585;SDS011;22591;48.314;11.562;2023-03-14T03:04:50;1.10;;;0.60;;
36585;SDS011;22591;48.314;11.562;2023-03-14T03:07:16;0.50;;;0.50;;
36585;SDS011;22591;48.314;11.562;2023-03-14T03:09:41;0.50;;;0.50;;
36585;SDS011;22591;48.314;11.562;2023-03-14T03:12:07;0.52;;;0.50;;
36585;SDS011;22591;48.314;11.562;2023-03-14T03:14:32;0.57;;;0.55;;
36585;SDS011;22591;48.314;11.562;2023-03-14T03:16:58;2.15;;;0.80;;
36585;SDS011;22591;48.314;11.562;2023-03-14T03:19:23;0.90;;;0.68;;
36585;SDS011;22591;48.314;11.562;2023-03-14T03:21:49;0.70;;;0.45;;
36585;SDS011;22591;48.314;11.562;2023-03-14T03:24:14;0.77;;;0.60;;
36585;SDS011;22591;48.314;11.562;2023-03-14T03:26:40;0.40;;;0.40;;
36585;SDS011;22591;48.314;11.562;2023-03-14T03:29:06;0.57;;;0.57;;
36585;SDS011;22591;48.314;11.562;2023-03-14T03:31:31;0.40;;;0.40;;
36585;SDS011;22591;48.314;11.562;2023-03-14T03:33:57;0.43;;;0.43;;
36585;SDS011;22591;48.314;11.562;2023-03-14T03:36:23;0.50;;;0.50;;
36585;SDS011;22591;48.314;11.562;2023-03-14T03:38:50;0.63;;;0.63;;
36585;SDS011;22591;48.314;11.562;2023-03-14T03:41:16;1.00;;;0.57;;
36585;SDS011;22591;48.314;11.562;2023-03-14T03:43:41;0.68;;;0.60;;
36585;SDS011;22591;48.314;11.562;2023-03-14T03:46:07;0.40;;;0.40;;
36585;SDS011;22591;48.314;11.562;2023-03-14T03:48:34;0.47;;;0.47;;
36585;SDS011;22591;48.314;11.562;2023-03-14T03:51:00;0.50;;;0.50;;
36585;SDS011;22591;48.314;11.562;2023-03-14T03:53:26;0.45;;;0.45;;
36585;SDS011;22591;48.314;11.562;2023-03-14T03:55:52;0.30;;;0.30;;
36585;SDS011;22591;48.314;11.562;2023-03-14T03:58:17;0.75;;;0.40;;
36585;SDS011;22591;48.314;11.562;2023-03-14T04:00:43;0.40;;;0.40;;
36585;SDS011;22591;48.314;11.562;2023-03-14T04:03:09;0.30;;;0.30;;
36585;SDS011;22591;48.314;11.562;2023-03-14T04:05:34;0.28;;;0.28;;
36585;SDS011;22591;48.314;11.562;2023-03-14T04:08:01;0.30;;;0.30;;
36585;SDS011;22591;48.314;11.562;2023-03-14T04:10:27;0.38;;;0.38;;
36585;SDS011;22591;48.314;11.562;2023-03-14T04:12:52;0.63;;;0.30;;
36585;SDS011;22591;48.314;11.562;2023-03-14T04:15:18;0.40;;;0.40;;
36585;SDS011;22591;48.314;11.562;2023-03-14T04:17:44;0.30;;;0.30;;
36585;SDS011;22591;48.314;11.562;2023-03-14T04:20:09;0.68;;;0.50;;
36585;SDS011;22591;48.314;11.562;2023-03-14T04:22:36;0.30;;;0.30;;
36585;SDS011;22591;48.314;11.562;2023-03-14T04:25:02;0.40;;;0.40;;
36585;SDS011;22591;48.314;11.562;2023-03-14T04:27:28;0.30;;;0.30;;
36585;SDS011;22591;48.314;11.562;2023-03-14T04:29:54;0.98;;;0.50;;
36585;SDS011;22591;48.314;11.562;2023-03-14T04:32:19;1.10;;;0.40;;
36585;SDS011;22591;48.314;11.562;2023-03-14T04:34:45;0.20;;;0.20;;
36585;SDS011;22591;48.314;11.562;2023-03-14T04:37:11;0.30;;;0.30;;
36585;SDS011;22591;48.314;11.562;2023-03-14T04:39:37;0.30;;;0.30;;
36585;SDS011;22591;48.314;11.562;2023-03-14T04:42:02;0.63;;;0.40;;
36585;SDS011;22591;48.314;11.562;2023-03-14T04:44:28;0.20;;;0.20;;
36585;SDS011;22591;48.314;11.562;2023-03-14T04:46:54;0.30;;;0.30;;
36585;SDS011;22591;48.314;11.562;2023-03-14T04:49:19;0.30;;;0.30;;
36585;SDS011;22591;48.314;11.562;2023-03-14T04:51:45;0.35;;;0.35;;
36585;SDS011;22591;48.314;11.562;2023-03-14T04:54:10;0.40;;;0.40;;
36585;SDS011;22591;48.314;11.562;2023-03-14T04:56:36;0.57;;;0.57;;
36585;SDS011;22591;48.314;11.562;2023-03-14T04:59:02;2.20;;;0.30;;
36585;SDS011;22591;48.314;11.562;2023-03-14T05:01:28;0.55;;;0.40;;
36585;SDS011;22591;48.314;11.562;2023-03-14T05:03:53;0.45;;;0.45;;
36585;SDS011;22591;48.314;11.562;2023-03-14T05:06:19;0.30;;;0.30;;
36585;SDS011;22591;48.314;11.562;2023-03-14T05:08:44;0.50;;;0.50;;
36585;SDS011;22591;48.314;11.562;2023-03-14T05:11:11;0.30;;;0.30;;
36585;SDS011;22591;48.314;11.562;2023-03-14T05:13:37;0.30;;;0.30;;
36585;SDS011;22591;48.314;11.562;2023-03-14T05:16:09;0.40;;;0.38;;
36585;SDS011;22591;48.314;11.562;2023-03-14T05:18:36;0.38;;;0.38;;
36585;SDS011;22591;48.314;11.562;2023-03-14T05:21:01;0.35;;;0.35;;
36585;SDS011;22591;48.314;11.562;2023-03-14T05:23:27;0.40;;;0.40;;
36585;SDS011;22591;48.314;11.562;2023-03-14T05:25:53;0.30;;;0.30;;
36585;SDS011;22591;48.314;11.562;2023-03-14T05:28:19;1.05;;;0.30;;
36585;SDS011;22591;48.314;11.562;2023-03-14T05:30:44;0.30;;;0.30;;
36585;SDS011;22591;48.314;11.562;2023-03-14T05:33:10;0.43;;;0.40;;
36585;SDS011;22591;48.314;11.562;2023-03-14T05:35:35;0.43;;;0.43;;
36585;SDS011;22591;48.314;11.562;2023-03-14T05:38:01;1.33;;;0.40;;
36585;SDS011;22591;48.314;11.562;2023-03-14T05:40:26;0.30;;;0.30;;
36585;SDS011;22591;48.314;11.562;2023-03-14T05:42:52;0.40;;;0.40;;
36585;SDS011;22591;48.314;11.562;2023-03-14T05:45:18;0.40;;;0.40;;
36585;SDS011;22591;48.314;11.562;2023-03-14T05:47:43;0.40;;;0.40;;
36585;SDS011;22591;48.314;11.562;2023-03-14T05:50:09;0.30;;;0.30;;
36585;SDS011;22591;48.314;11.562;2023-03-14T05:52:35;0.30;;;0.30;;
36585;SDS011;22591;48.314;11.562;2023-03-14T05:55:01;0.40;;;0.40;;
36585;SDS011;22591;48.314;11.562;2023-03-14T05:57:26;0.40;;;0.40;;
36585;SDS011;22591;48.314;11.562;2023-03-14T05:59:52;0.40;;;0.40;;
36585;SDS011;22591;48.314;11.562;2023-03-14T06:02:17;0.38;;;0.38;;
36585;SDS011;22591;48.314;11.562;2023-03-14T06:04:43;0.40;;;0.40;;
36585;SDS011;22591;48.314;11.562;2023-03-14T06:07:09;0.40;;;0.40;;
36585;SDS011;22591;48.314;11.562;2023-03-14T06:09:34;1.48;;;0.30;;
36585;SDS011;22591;48.314;11.562;2023-03-14T06:12:00;0.30;;;0.30;;
36585;SDS011;22591;48.314;11.562;2023-03-14T06:14:25;0.45;;;0.45;;
36585;SDS011;22591;48.314;11.562;2023-03-14T06:16:51;0.40;;;0.40;;
36585;SDS011;22591;48.314;11.562;2023-03-14T06:19:17;1.27;;;0.30;;
36585;SDS011;22591;48.314;11.562;2023-03-14T06:21:43;0.40;;;0.40;;
36585;SDS011;22591;48.314;11.562;2023-03-14T06:24:09;0.30;;;0.30;;
36585;SDS011;22591;48.314;11.562;2023-03-14T06:26:34;0.38;;;0.38;;
36585;SDS011;22591;48.314;11.562;2023-03-14T06:29:00;0.50;;;0.30;;
36585;SDS011;22591;48.314;11.562;2023-03-14T06:31:28;0.50;;;0.50;;
36585;SDS011;22591;48.314;11.562;2023-03-14T06:33:55;2.10;;;0.95;;
36585;SDS011;22591;48.314;11.562;2023-03-14T06:36:20;1.08;;;0.40;;
36585;SDS011;22591;48.314;11.562;2023-03-14T06:38:46;1.33;;;0.45;;
36585;SDS011;22591;48.314;11.562;2023-03-14T06:41:11;0.30;;;0.30;;
36585;SDS011;22591;48.314;11.562;2023-03-14T06:43:37;0.20;;;0.20;;
36585;SDS011;22591;48.314;11.562;2023-03-14T06:46:02;0.35;;;0.35;;
36585;SDS011;22591;48.314;11.562;2023-03-14T06:48:28;0.30;;;0.30;;
36585;SDS011;22591;48.314;11.562;2023-03-14T06:50:54;0.43;;;0.40;;
36585;SDS011;22591;48.314;11.562;2023-03-14T06:53:19;0.50;;;0.50;;
36585;SDS011;22591;48.314;11.562;2023-03-14T06:55:45;1.20;;;0.40;;
36585;SDS011;22591;48.314;11.562;2023-03-14T06:58:11;0.40;;;0.40;;
36585;SDS011;22591;48.314;11.562;2023-03-14T07:00:36;0.43;;;0.43;;
36585;SDS011;22591;48.314;11.562;2023-03-14T07:03:02;1.58;;;0.50;;
36585;SDS011;22591;48.314;11.562;2023-03-14T07:05:27;0.60;;;0.60;;
36585;SDS011;22591;48.314;11.562;2023-03-14T07:07:53;0.35;;;0.35;;
36585;SDS011;22591;48.314;11.562;2023-03-14T07:10:19;2.03;;;0.47;;
36585;SDS011;22591;48.314;11.562;2023-03-14T07:12:44;0.30;;;0.30;;
36585;SDS011;22591;48.314;11.562;2023-03-14T07:15:10;0.50;;;0.50;;
36585;SDS011;22591;48.314;11.562;2023-03-14T07:17:36;0.70;;;0.63;;
36585;SDS011;22591;48.314;11.562;2023-03-14T07:20:01;0.55;;;0.55;;
36585;SDS011;22591;48.314;11.562;2023-03-14T07:22:29;0.40;;;0.40;;
36585;SDS011;22591;48.314;11.562;2023-03-14T07:24:55;0.50;;;0.50;;
36585;SDS011;22591;48.314;11.562;2023-03-14T07:27:21;0.40;;;0.40;;
36585;SDS011;22591;48.314;11.562;2023-03-14T07:29:46;0.40;;;0.40;;
36585;SDS011;22591;48.314;11.562;2023-03-14T07:32:12;0.55;;;0.55;;
36585;SDS011;22591;48.314;11.562;2023-03-14T07:34:40;0.52;;;0.40;;
36585;SDS011;22591;48.314;11.562;2023-03-14T07:37:08;0.60;;;0.40;;
36585;SDS011;22591;48.314;11.562;2023-03-14T07:39:34;1.20;;;0.50;;
36585;SDS011;22591;48.314;11.562;2023-03-14T07:42:00;1.55;;;0.47;;
36585;SDS011;22591;48.314;11.562;2023-03-14T07:44:26;0.60;;;0.50;;
36585;SDS011;22591;48.314;11.562;2023-03-14T07:46:51;0.35;;;0.35;;
36585;SDS011;22591;48.314;11.562;2023-03-14T07:49:17;0.30;;;0.30;;
36585;SDS011;22591;48.314;11.562;2023-03-14T07:51:43;0.40;;;0.40;;
36585;SDS011;22591;48.314;11.562;2023-03-14T07:54:11;0.50;;;0.50;;
36585;SDS011;22591;48.314;11.562;2023-03-14T07:56:37;0.50;;;0.50;;
36585;SDS011;22591;48.314;11.562;2023-03-14T07:59:02;0.50;;;0.50;;
36585;SDS011;22591;48.314;11.562;2023-03-14T08:01:28;0.73;;;0.73;;
36585;SDS011;22591;48.314;11.562;2023-03-14T08:03:54;0.60;;;0.60;;
36585;SDS011;22591;48.314;11.562;2023-03-14T08:06:19;0.30;;;0.30;;
36585;SDS011;22591;48.314;11.562;2023-03-14T08:08:45;0.35;;;0.35;;
36585;SDS011;22591;48.314;11.562;2023-03-14T08:11:10;3.70;;;0.60;;
36585;SDS011;22591;48.314;11.562;2023-03-14T08:13:36;1.05;;;0.60;;
36585;SDS011;22591;48.314;11.562;2023-03-14T08:16:03;0.30;;;0.30;;
36585;SDS011;22591;48.314;11.562;2023-03-14T08:18:29;0.50;;;0.50;;
36585;SDS011;22591;48.314;11.562;2023-03-14T08:20:55;0.30;;;0.30;;
36585;SDS011;22591;48.314;11.562;2023-03-14T08:23:20;0.77;;;0.50;;
36585;SDS011;22591;48.314;11.562;2023-03-14T08:25:48;1.38;;;0.40;;
36585;SDS011;22591;48.314;11.562;2023-03-14T08:28:15;0.50;;;0.50;;
36585;SDS011;22591;48.314;11.562;2023-03-14T08:30:41;1.30;;;0.55;;
36585;SDS011;22591;48.314;11.562;2023-03-14T08:33:06;0.50;;;0.50;;
36585;SDS011;22591;48.314;11.562;2023-03-14T08:35:32;0.50;;;0.50;;
36585;SDS011;22591;48.314;11.562;2023-03-14T08:37:57;0.80;;;0.52;;
36585;SDS011;22591;48.314;11.562;2023-03-14T08:40:23;2.47;;;1.35;;
36585;SDS011;22591;48.314;11.562;2023-03-14T08:42:48;2.33;;;1.58;;
36585;SDS011;22591;48.314;11.562;2023-03-14T08:45:14;6.35;;;2.97;;
36585;SDS011;22591;48.314;11.562;2023-03-14T08:47:44;7.03;;;2.55;;
36585;SDS011;22591;48.314;11.562;2023-03-14T08:50:10;9.75;;;4.00;;
36585;SDS011;22591;48.314;11.562;2023-03-14T08:52:36;2.45;;;1.25;;
36585;SDS011;22591;48.314;11.562;2023-03-14T08:55:05;1.58;;;1.27;;
36585;SDS011;22591;48.314;11.562;2023-03-14T08:57:31;0.40;;;0.40;;
36585;SDS011;22591;48.314;11.562;2023-03-14T08:59:57;1.40;;;1.30;;
36585;SDS011;22591;48.314;11.562;2023-03-14T09:02:23;1.02;;;0.75;;
36585;SDS011;22591;48.314;11.562;2023-03-14T09:04:50;2.63;;;0.65;;
36585;SDS011;22591;48.314;11.562;2023-03-14T09:07:16;0.47;;;0.47;;
36585;SDS011;22591;48.314;11.562;2023-03-14T09:09:42;0.55;;;0.55;;
36585;SDS011;22591;48.314;11.562;2023-03-14T09:12:07;0.90;;;0.90;;
36585;SDS011;22591;48.314;11.562;2023-03-14T09:14:33;0.40;;;0.40;;
36585;SDS011;22591;48.314;11.562;2023-03-14T09:16:59;0.60;;;0.60;;
36585;SDS011;22591;48.314;11.562;2023-03-14T09:19:24;1.92;;;0.40;;
36585;SDS011;22591;48.314;11.562;2023-03-14T09:21:50;0.40;;;0.40;;
36585;SDS011;22591;48.314;11.562;2023-03-14T09:24:16;1.25;;;0.60;;
36585;SDS011;22591;48.314;11.562;2023-03-14T09:26:42;0.88;;;0.40;;
36585;SDS011;22591;48.314;11.562;2023-03-14T09:29:07;0.98;;;0.47;;
36585;SDS011;22591;48.314;11.562;2023-03-14T09:31:33;0.93;;;0.50;;
36585;SDS011;22591;48.314;11.562;2023-03-14T09:33:58;0.80;;;0.80;;
36585;SDS011;22591;48.314;11.562;2023-03-14T09:36:24;0.38;;;0.38;;
36585;SDS011;22591;48.314;11.562;2023-03-14T09:38:50;0.38;;;0.38;;
36585;SDS011;22591;48.314;11.562;2023-03-14T09:41:16;0.57;;;0.57;;
36585;SDS011;22591;48.314;11.562;2023-03-14T09:43:43;0.60;;;0.60;;
36585;SDS011;22591;48.314;11.562;2023-03-14T09:46:10;0.60;;;0.60;;
36585;SDS011;22591;48.314;11.562;2023-03-14T09:48:37;0.70;;;0.50;;
36585;SDS011;22591;48.314;11.562;2023-03-14T09:51:07;0.30;;;0.30;;
36585;SDS011;22591;48.314;11.562;2023-03-14T09:53:42;0.52;;;0.50;;
36585;SDS011;22591;48.314;11.562;2023-03-14T09:56:16;0.68;;;0.50;;
36585;SDS011;22591;48.314;11.562;2023-03-14T09:58:48;1.42;;;0.43;;
36585;SDS011;22591;48.314;11.562;2023-03-14T10:01:20;0.75;;;0.75;;
36585;SDS011;22591;48.314;11.562;2023-03-14T10:03:57;0.50;;;0.30;;
36585;SDS011;22591;48.314;11.562;2023-03-14T10:06:28;0.65;;;0.43;;
36585;SDS011;22591;48.314;11.562;2023-03-14T10:08:55;0.68;;;0.60;;
36585;SDS011;22591;48.314;11.562;2023-03-14T10:11:22;0.40;;;0.40;;
36585;SDS011;22591;48.314;11.562;2023-03-14T10:13:49;1.40;;;0.55;;
36585;SDS011;22591;48.314;11.562;2023-03-14T10:19:07;0.30;;;0.30;;
36585;SDS011;22591;48.314;11.562;2023-03-14T10:21:37;0.40;;;0.40;;
36585;SDS011;22591;48.314;11.562;2023-03-14T10:24:49;0.50;;;0.50;;
36585;SDS011;22591;48.314;11.562;2023-03-14T10:27:03;0.73;;;0.43;;
36585;SDS011;22591;48.314;11.562;2023-03-14T10:29:31;0.40;;;0.40;;
36585;SDS011;22591;48.314;11.562;2023-03-14T10:32:05;0.30;;;0.28;;
36585;SDS011;22591;48.314;11.562;2023-03-14T10:34:35;0.52;;;0.50;;
36585;SDS011;22591;48.314;11.562;2023-03-14T10:37:21;0.60;;;0.60;;
36585;SDS011;22591;48.314;11.562;2023-03-14T10:39:48;0.88;;;0.60;;
36585;SDS011;22591;48.314;11.562;2023-03-14T10:42:50;0.63;;;0.50;;
36585;SDS011;22591;48.314;11.562;2023-03-14T10:50:47;0.55;;;0.30;;
36585;SDS011;22591;48.314;11.562;2023-03-14T10:53:16;0.38;;;0.38;;
36585;SDS011;22591;48.314;11.562;2023-03-14T10:55:42;1.55;;;0.30;;
36585;SDS011;22591;48.314;11.562;2023-03-14T10:58:23;0.60;;;0.60;;
36585;SDS011;22591;48.314;11.562;2023-03-14T11:00:57;0.95;;;0.80;;
36585;SDS011;22591;48.314;11.562;2023-03-14T11:11:59;0.40;;;0.40;;
36585;SDS011;22591;48.314;11.562;2023-03-14T11:14:47;0.40;;;0.40;;
36585;SDS011;22591;48.314;11.562;2023-03-14T11:22:24;0.40;;;0.40;;
36585;SDS011;22591;48.314;11.562;2023-03-14T11:25:18;0.75;;;0.40;;
36585;SDS011;22591;48.314;11.562;2023-03-14T11:28:05;0.50;;;0.50;;
36585;SDS011;22591;48.314;11.562;2023-03-14T11:30:50;0.40;;;0.40;;
36585;SDS011;22591;48.314;11.562;2023-03-14T11:33:21;0.55;;;0.40;;
36585;SDS011;22591;48.314;11.562;2023-03-14T11:35:55;0.38;;;0.38;;
36585;SDS011;22591;48.314;11.562;2023-03-14T11:40:56;0.30;;;0.30;;
36585;SDS011;22591;48.314;11.562;2023-03-14T11:43:30;0.52;;;0.40;;
36585;SDS011;22591;48.314;11.562;2023-03-14T11:46:03;0.30;;;0.30;;
36585;SDS011;22591;48.314;11.562;2023-03-14T11:51:07;0.40;;;0.40;;
36585;SDS011;22591;48.314;11.562;2023-03-14T11:56:13;0.30;;;0.30;;
36585;SDS011;22591;48.314;11.562;2023-03-14T11:58:55;0.30;;;0.30;;
36585;SDS011;22591;48.314;11.562;2023-03-14T12:01:27;0.50;;;0.40;;
36585;SDS011;22591;48.314;11.562;2023-03-14T12:04:02;0.52;;;0.40;;
36585;SDS011;22591;48.314;11.562;2023-03-14T12:06:50;0.30;;;0.30;;
36585;SDS011;22591;48.314;11.562;2023-03-14T12:09:16;0.25;;;0.25;;
36585;SDS011;22591;48.314;11.562;2023-03-14T12:14:22;1.35;;;0.38;;
36585;SDS011;22591;48.314;11.562;2023-03-14T12:16:56;0.30;;;0.30;;
36585;SDS011;22591;48.314;11.562;2023-03-14T12:21:53;0.47;;;0.47;;
36585;SDS011;22591;48.314;11.562;2023-03-14T12:24:22;0.30;;;0.30;;
36585;SDS011;22591;48.314;11.562;2023-03-14T12:26:53;0.30;;;0.30;;
36585;SDS011;22591;48.314;11.562;2023-03-14T12:29:20;0.50;;;0.50;;
36585;SDS011;22591;48.314;11.562;2023-03-14T12:31:47;1.88;;;0.40;;
36585;SDS011;22591;48.314;11.562;2023-03-14T12:34:24;0.32;;;0.32;;
36585;SDS011;22591;48.314;11.562;2023-03-14T12:36:59;1.75;;;0.40;;
36585;SDS011;22591;48.314;11.562;2023-03-14T12:51:00;0.50;;;0.50;;
36585;SDS011;22591;48.314;11.562;2023-03-14T12:56:17;0.38;;;0.38;;
36585;SDS011;22591;48.314;11.562;2023-03-14T12:58:54;0.63;;;0.28;;
36585;SDS011;22591;48.314;11.562;2023-03-14T13:02:27;0.50;;;0.50;;
36585;SDS011;22591;48.314;11.562;2023-03-14T13:04:34;0.95;;;0.40;;
36585;SDS011;22591;48.314;11.562;2023-03-14T13:07:11;1.77;;;0.45;;
36585;SDS011;22591;48.314;11.562;2023-03-14T13:09:55;0.60;;;0.60;;
36585;SDS011;22591;48.314;11.562;2023-03-14T13:12:27;1.92;;;0.70;;
36585;SDS011;22591;48.314;11.562;2023-03-14T13:14:57;1.35;;;0.50;;
36585;SDS011;22591;48.314;11.562;2023-03-14T13:17:26;0.70;;;0.70;;
36585;SDS011;22591;48.314;11.562;2023-03-14T13:19:56;0.63;;;0.52;;
36585;SDS011;22591;48.314;11.562;2023-03-14T13:22:27;0.30;;;0.30;;
36585;SDS011;22591;48.314;11.562;2023-03-14T13:25:09;1.50;;;0.52;;
36585;SDS011;22591;48.314;11.562;2023-03-14T13:27:36;0.45;;;0.45;;
36585;SDS011;22591;48.314;11.562;2023-03-14T13:30:21;0.40;;;0.40;;
36585;SDS011;22591;48.314;11.562;2023-03-14T13:32:49;0.30;;;0.30;;
36585;SDS011;22591;48.314;11.562;2023-03-14T13:35:17;0.40;;;0.40;;
36585;SDS011;22591;48.314;11.562;2023-03-14T13:37:58;0.30;;;0.30;;
36585;SDS011;22591;48.314;11.562;2023-03-14T13:40:34;0.63;;;0.50;;
36585;SDS011;22591;48.314;11.562;2023-03-14T13:43:01;0.50;;;0.50;;
36585;SDS011;22591;48.314;11.562;2023-03-14T13:45:29;0.50;;;0.50;;
36585;SDS011;22591;48.314;11.562;2023-03-14T13:47:55;0.60;;;0.60;;
36585;SDS011;22591;48.314;11.562;2023-03-14T13:50:20;0.55;;;0.55;;
36585;SDS011;22591;48.314;11.562;2023-03-14T13:52:46;0.50;;;0.50;;
36585;SDS011;22591;48.314;11.562;2023-03-14T13:55:14;0.55;;;0.50;;
36585;SDS011;22591;48.314;11.562;2023-03-14T13:57:46;0.60;;;0.50;;
36585;SDS011;22591;48.314;11.562;2023-03-14T14:00:17;0.45;;;0.45;;
36585;SDS011;22591;48.314;11.562;2023-03-14T14:02:46;0.35;;;0.35;;
36585;SDS011;22591;48.314;11.562;2023-03-14T14:05:12;0.40;;;0.40;;
36585;SDS011;22591;48.314;11.562;2023-03-14T14:07:39;0.30;;;0.30;;
36585;SDS011;22591;48.314;11.562;2023-03-14T14:10:08;0.47;;;0.47;;
36585;SDS011;22591;48.314;11.562;2023-03-14T14:12:40;0.50;;;0.50;;
36585;SDS011;22591;48.314;11.562;2023-03-14T14:15:22;0.47;;;0.47;;
36585;SDS011;22591;48.314;11.562;2023-03-14T14:17:57;0.50;;;0.50;;
36585;SDS011;22591;48.314;11.562;2023-03-14T14:22:57;1.48;;;0.50;;
36585;SDS011;22591;48.314;11.562;2023-03-14T14:25:24;0.30;;;0.30;;
36585;SDS011;22591;48.314;11.562;2023-03-14T14:27:50;0.40;;;0.40;;
36585;SDS011;22591;48.314;11.562;2023-03-14T14:32:45;0.50;;;0.50;;
36585;SDS011;22591;48.314;11.562;2023-03-14T14:38:18;0.60;;;0.60;;
36585;SDS011;22591;48.314;11.562;2023-03-14T14:40:45;0.60;;;0.60;;
36585;SDS011;22591;48.314;11.562;2023-03-14T14:43:18;0.60;;;0.60;;
36585;SDS011;22591;48.314;11.562;2023-03-14T14:45:47;0.47;;;0.47;;
36585;SDS011;22591;48.314;11.562;2023-03-14T14:48:19;0.50;;;0.50;;
36585;SDS011;22591;48.314;11.562;2023-03-14T14:50:57;0.50;;;0.50;;
36585;SDS011;22591;48.314;11.562;2023-03-14T14:53:38;1.75;;;0.73;;
36585;SDS011;22591;48.314;11.562;2023-03-14T14:56:19;0.50;;;0.50;;
36585;SDS011;22591;48.314;11.562;2023-03-14T14:58:49;0.63;;;0.63;;
36585;SDS011;22591;48.314;11.562;2023-03-14T15:03:43;0.43;;;0.43;;
36585;SDS011;22591;48.314;11.562;2023-03-14T15:06:11;0.47;;;0.40;;
36585;SDS011;22591;48.314;11.562;2023-03-14T15:08:38;0.88;;;0.88;;
36585;SDS011;22591;48.314;11.562;2023-03-14T15:11:03;0.68;;;0.68;;
36585;SDS011;22591;48.314;11.562;2023-03-14T15:13:29;0.90;;;0.90;;
36585;SDS011;22591;48.314;11.562;2023-03-14T15:15:55;0.80;;;0.80;;
36585;SDS011;22591;48.314;11.562;2023-03-14T15:18:22;0.70;;;0.70;;
36585;SDS011;22591;48.314;11.562;2023-03-14T15:20:49;0.60;;;0.60;;
36585;SDS011;22591;48.314;11.562;2023-03-14T15:23:16;1.10;;;0.98;;
36585;SDS011;22591;48.314;11.562;2023-03-14T15:25:43;0.90;;;0.90;;
36585;SDS011;22591;48.314;11.562;2023-03-14T15:28:13;1.05;;;0.95;;
36585;SDS011;22591;48.314;11.562;2023-03-14T15:30:39;2.08;;;1.90;;
36585;SDS011;22591;48.314;11.562;2023-03-14T15:33:05;1.75;;;1.50;;
36585;SDS011;22591;48.314;11.562;2023-03-14T15:35:33;1.05;;;0.95;;
36585;SDS011;22591;48.314;11.562;2023-03-14T15:38:02;0.80;;;0.80;;
36585;SDS011;22591;48.314;11.562;2023-03-14T15:40:28;0.93;;;0.90;;
36585;SDS011;22591;48.314;11.562;2023-03-14T15:42:54;1.10;;;0.75;;
36585;SDS011;22591;48.314;11.562;2023-03-14T15:45:20;0.80;;;0.80;;
36585;SDS011;22591;48.314;11.562;2023-03-14T15:47:45;0.95;;;0.93;;
36585;SDS011;22591;48.314;11.562;2023-03-14T15:50:11;2.90;;;1.00;;
36585;SDS011;22591;48.314;11.562;2023-03-14T15:52:36;1.83;;;0.80;;
36585;SDS011;22591;48.314;11.562;2023-03-14T15:55:02;1.15;;;0.93;;